sensor_id;sensor_type;location;lat;lon;timestamp;P1;durP1;ratioP1;P2;durP2;ratioP2
12451;SDS011;6291;48.924;12.204;2022-11-20T00:04:27;26.98;;;19.20;;
12451;SDS011;6291;48.924;12.204;2022-11-20T00:09:31;25.10;;;17.50;;
12451;SDS011;6291;48.924;12.204;2022-11-20T00:14:34;26.73;;;19.05;;
12451;SDS011;6291;48.924;12.204;2022-11-20T00:19:39;28.40;;;20.90;;
12451;SDS011;6291;48.924;12.204;2022-11-20T00:24:42;29.33;;;20.37;;
12451;SDS011;6291;48.924;12.204;2022-11-20T00:29:45;28.58;;;20.35;;
12451;SDS011;6291;48.924;12.204;2022-11-20T00:34:50;29.38;;;20.35;;
12451;SDS011;6291;48.924;12.204;2022-11-20T00:39:53;30.80;;;20.93;;
12451;SDS011;6291;48.924;12.204;2022-11-20T00:44:57;29.65;;;21.10;;
12451;SDS011;6291;48.924;12.204;2022-11-20T00:50:02;30.83;;;20.80;;
12451;SDS011;6291;48.924;12.204;2022-11-20T00:55:06;29.58;;;20.92;;
12451;SDS011;6291;48.924;12.204;2022-11-20T01:00:09;31.20;;;20.33;;
12451;SDS011;6291;48.924;12.204;2022-11-20T01:05:14;28.83;;;21.30;;
12451;SDS011;6291;48.924;12.204;2022-11-20T01:10:18;30.70;;;20.10;;
12451;SDS011;6291;48.924;12.204;2022-11-20T01:15:21;28.67;;;19.97;;
12451;SDS011;6291;48.924;12.204;2022-11-20T01:20:26;28.73;;;19.90;;
12451;SDS011;6291;48.924;12.204;2022-11-20T01:25:29;27.27;;;19.63;;
12451;SDS011;6291;48.924;12.204;2022-11-20T01:30:32;26.47;;;19.20;;
12451;SDS011;6291;48.924;12.204;2022-11-20T01:35:38;26.83;;;19.67;;
12451;SDS011;6291;48.924;12.204;2022-11-20T01:40:41;26.98;;;19.50;;
12451;SDS011;6291;48.924;12.204;2022-11-20T01:45:52;29.08;;;20.20;;
12451;SDS011;6291;48.924;12.204;2022-11-20T01:51:02;26.25;;;18.85;;
12451;SDS011;6291;48.924;12.204;2022-11-20T01:56:08;27.00;;;18.75;;
12451;SDS011;6291;48.924;12.204;2022-11-20T02:01:14;29.00;;;20.00;;
12451;SDS011;6291;48.924;12.204;2022-11-20T02:06:21;30.08;;;21.42;;
12451;SDS011;6291;48.924;12.204;2022-11-20T02:11:29;29.70;;;20.42;;
12451;SDS011;6291;48.924;12.204;2022-11-20T02:16:33;29.00;;;19.30;;
12451;SDS011;6291;48.924;12.204;2022-11-20T02:21:41;27.37;;;19.10;;
12451;SDS011;6291;48.924;12.204;2022-11-20T02:26:52;25.02;;;18.63;;
12451;SDS011;6291;48.924;12.204;2022-11-20T02:31:57;27.85;;;19.27;;
12451;SDS011;6291;48.924;12.204;2022-11-20T02:37:03;27.80;;;20.17;;
12451;SDS011;6291;48.924;12.204;2022-11-20T02:42:07;27.43;;;18.90;;
12451;SDS011;6291;48.924;12.204;2022-11-20T02:47:11;27.65;;;19.83;;
12451;SDS011;6291;48.924;12.204;2022-11-20T02:52:14;27.73;;;20.17;;
12451;SDS011;6291;48.924;12.204;2022-11-20T02:57:19;27.08;;;19.30;;
12451;SDS011;6291;48.924;12.204;2022-11-20T03:02:22;27.45;;;19.60;;
12451;SDS011;6291;48.924;12.204;2022-11-20T03:07:25;26.63;;;19.27;;
12451;SDS011;6291;48.924;12.204;2022-11-20T03:12:30;30.10;;;20.97;;
12451;SDS011;6291;48.924;12.204;2022-11-20T03:17:33;29.02;;;20.80;;
12451;SDS011;6291;48.924;12.204;2022-11-20T03:22:37;28.70;;;20.52;;
12451;SDS011;6291;48.924;12.204;2022-11-20T03:27:41;27.55;;;19.45;;
12451;SDS011;6291;48.924;12.204;2022-11-20T03:32:45;26.73;;;18.92;;
12451;SDS011;6291;48.924;12.204;2022-11-20T03:37:48;27.85;;;20.02;;
12451;SDS011;6291;48.924;12.204;2022-11-20T03:42:53;29.00;;;20.25;;
12451;SDS011;6291;48.924;12.204;2022-11-20T03:47:56;28.38;;;19.45;;
12451;SDS011;6291;48.924;12.204;2022-11-20T03:52:59;27.25;;;19.15;;
12451;SDS011;6291;48.924;12.204;2022-11-20T03:58:04;29.63;;;20.33;;
12451;SDS011;6291;48.924;12.204;2022-11-20T04:03:07;27.38;;;19.35;;
12451;SDS011;6291;48.924;12.204;2022-11-20T04:08:11;31.10;;;20.90;;
12451;SDS011;6291;48.924;12.204;2022-11-20T04:13:15;29.52;;;20.70;;
12451;SDS011;6291;48.924;12.204;2022-11-20T04:18:19;32.08;;;21.98;;
12451;SDS011;6291;48.924;12.204;2022-11-20T04:23:22;35.58;;;22.50;;
12451;SDS011;6291;48.924;12.204;2022-11-20T04:28:30;36.53;;;22.80;;
12451;SDS011;6291;48.924;12.204;2022-11-20T04:33:34;36.13;;;22.58;;
12451;SDS011;6291;48.924;12.204;2022-11-20T04:38:38;39.57;;;24.87;;
12451;SDS011;6291;48.924;12.204;2022-11-20T04:43:45;30.40;;;20.20;;
12451;SDS011;6291;48.924;12.204;2022-11-20T04:48:49;33.47;;;21.15;;
12451;SDS011;6291;48.924;12.204;2022-11-20T04:53:52;31.95;;;21.20;;
12451;SDS011;6291;48.924;12.204;2022-11-20T04:59:00;37.47;;;24.42;;
12451;SDS011;6291;48.924;12.204;2022-11-20T05:04:05;38.77;;;23.50;;
12451;SDS011;6291;48.924;12.204;2022-11-20T05:09:08;47.80;;;29.17;;
12451;SDS011;6291;48.924;12.204;2022-11-20T05:14:13;40.53;;;24.25;;
12451;SDS011;6291;48.924;12.204;2022-11-20T05:19:17;47.15;;;27.70;;
12451;SDS011;6291;48.924;12.204;2022-11-20T05:24:20;47.97;;;27.17;;
12451;SDS011;6291;48.924;12.204;2022-11-20T05:29:25;40.67;;;24.08;;
12451;SDS011;6291;48.924;12.204;2022-11-20T05:34:28;43.50;;;24.53;;
12451;SDS011;6291;48.924;12.204;2022-11-20T05:39:32;38.63;;;23.52;;
12451;SDS011;6291;48.924;12.204;2022-11-20T05:44:36;39.30;;;22.30;;
12451;SDS011;6291;48.924;12.204;2022-11-20T05:49:40;38.17;;;22.23;;
12451;SDS011;6291;48.924;12.204;2022-11-20T05:54:43;38.03;;;22.60;;
12451;SDS011;6291;48.924;12.204;2022-11-20T05:59:48;35.35;;;21.42;;
12451;SDS011;6291;48.924;12.204;2022-11-20T06:04:51;40.35;;;23.50;;
12451;SDS011;6291;48.924;12.204;2022-11-20T06:09:55;38.15;;;22.27;;
12451;SDS011;6291;48.924;12.204;2022-11-20T06:14:59;37.50;;;23.63;;
12451;SDS011;6291;48.924;12.204;2022-11-20T06:20:03;41.33;;;24.23;;
12451;SDS011;6291;48.924;12.204;2022-11-20T06:25:07;39.15;;;23.60;;
12451;SDS011;6291;48.924;12.204;2022-11-20T06:30:12;41.20;;;23.48;;
12451;SDS011;6291;48.924;12.204;2022-11-20T06:35:16;36.88;;;21.42;;
12451;SDS011;6291;48.924;12.204;2022-11-20T06:40:19;46.95;;;24.52;;
12451;SDS011;6291;48.924;12.204;2022-11-20T06:45:24;43.25;;;23.75;;
12451;SDS011;6291;48.924;12.204;2022-11-20T06:50:27;44.95;;;23.52;;
12451;SDS011;6291;48.924;12.204;2022-11-20T06:55:31;51.38;;;24.60;;
12451;SDS011;6291;48.924;12.204;2022-11-20T07:00:36;46.10;;;23.70;;
12451;SDS011;6291;48.924;12.204;2022-11-20T07:05:39;46.23;;;24.13;;
12451;SDS011;6291;48.924;12.204;2022-11-20T07:10:43;46.33;;;23.20;;
12451;SDS011;6291;48.924;12.204;2022-11-20T07:15:48;45.03;;;26.17;;
12451;SDS011;6291;48.924;12.204;2022-11-20T07:20:51;48.67;;;27.55;;
12451;SDS011;6291;48.924;12.204;2022-11-20T07:25:54;40.90;;;23.15;;
12451;SDS011;6291;48.924;12.204;2022-11-20T07:30:59;44.80;;;25.23;;
12451;SDS011;6291;48.924;12.204;2022-11-20T07:36:03;41.22;;;24.55;;
12451;SDS011;6291;48.924;12.204;2022-11-20T07:41:07;44.50;;;25.02;;
12451;SDS011;6291;48.924;12.204;2022-11-20T07:46:11;42.27;;;23.33;;
12451;SDS011;6291;48.924;12.204;2022-11-20T07:51:15;35.83;;;22.25;;
12451;SDS011;6291;48.924;12.204;2022-11-20T07:56:18;32.10;;;21.20;;
12451;SDS011;6291;48.924;12.204;2022-11-20T08:01:23;31.77;;;21.03;;
12451;SDS011;6291;48.924;12.204;2022-11-20T08:06:26;24.00;;;16.63;;
12451;SDS011;6291;48.924;12.204;2022-11-20T08:11:30;25.95;;;17.92;;
12451;SDS011;6291;48.924;12.204;2022-11-20T08:16:52;15.48;;;11.98;;
12451;SDS011;6291;48.924;12.204;2022-11-20T08:21:55;10.52;;;7.45;;
12451;SDS011;6291;48.924;12.204;2022-11-20T08:26:59;9.20;;;6.53;;
12451;SDS011;6291;48.924;12.204;2022-11-20T08:32:04;9.07;;;6.00;;
12451;SDS011;6291;48.924;12.204;2022-11-20T08:37:07;7.03;;;5.32;;
12451;SDS011;6291;48.924;12.204;2022-11-20T08:42:10;6.95;;;5.18;;
12451;SDS011;6291;48.924;12.204;2022-11-20T08:47:15;9.18;;;6.50;;
12451;SDS011;6291;48.924;12.204;2022-11-20T08:52:18;6.63;;;5.00;;
12451;SDS011;6291;48.924;12.204;2022-11-20T08:57:22;5.47;;;4.25;;
12451;SDS011;6291;48.924;12.204;2022-11-20T09:02:26;7.57;;;6.20;;
12451;SDS011;6291;48.924;12.204;2022-11-20T09:07:30;5.70;;;4.50;;
12451;SDS011;6291;48.924;12.204;2022-11-20T09:12:33;4.60;;;3.67;;
12451;SDS011;6291;48.924;12.204;2022-11-20T09:17:38;7.70;;;6.15;;
12451;SDS011;6291;48.924;12.204;2022-11-20T09:22:42;4.27;;;3.87;;
12451;SDS011;6291;48.924;12.204;2022-11-20T09:27:45;5.23;;;4.20;;
12451;SDS011;6291;48.924;12.204;2022-11-20T09:32:50;3.63;;;3.33;;
12451;SDS011;6291;48.924;12.204;2022-11-20T09:37:54;4.53;;;3.72;;
12451;SDS011;6291;48.924;12.204;2022-11-20T09:42:58;2.78;;;2.40;;
12451;SDS011;6291;48.924;12.204;2022-11-20T09:48:28;2.92;;;1.60;;
12451;SDS011;6291;48.924;12.204;2022-11-20T09:53:46;3.10;;;2.60;;
12451;SDS011;6291;48.924;12.204;2022-11-20T09:58:59;2.37;;;1.83;;
12451;SDS011;6291;48.924;12.204;2022-11-20T10:04:09;2.50;;;2.30;;
12451;SDS011;6291;48.924;12.204;2022-11-20T10:09:18;6.20;;;4.97;;
12451;SDS011;6291;48.924;12.204;2022-11-20T10:14:30;3.73;;;3.33;;
12451;SDS011;6291;48.924;12.204;2022-11-20T10:19:47;2.92;;;2.70;;
12451;SDS011;6291;48.924;12.204;2022-11-20T10:25:04;4.43;;;3.13;;
12451;SDS011;6291;48.924;12.204;2022-11-20T10:30:16;3.50;;;2.55;;
12451;SDS011;6291;48.924;12.204;2022-11-20T10:35:32;3.25;;;2.88;;
12451;SDS011;6291;48.924;12.204;2022-11-20T10:40:42;2.65;;;2.22;;
12451;SDS011;6291;48.924;12.204;2022-11-20T10:45:52;5.37;;;3.70;;
12451;SDS011;6291;48.924;12.204;2022-11-20T10:51:02;3.83;;;3.00;;
12451;SDS011;6291;48.924;12.204;2022-11-20T10:56:16;3.28;;;2.78;;
12451;SDS011;6291;48.924;12.204;2022-11-20T11:01:23;3.65;;;3.25;;
12451;SDS011;6291;48.924;12.204;2022-11-20T11:06:31;3.33;;;2.60;;
12451;SDS011;6291;48.924;12.204;2022-11-20T11:11:39;2.65;;;1.88;;
12451;SDS011;6291;48.924;12.204;2022-11-20T11:16:48;3.80;;;2.67;;
12451;SDS011;6291;48.924;12.204;2022-11-20T11:21:54;3.33;;;2.20;;
12451;SDS011;6291;48.924;12.204;2022-11-20T11:26:59;4.38;;;2.80;;
12451;SDS011;6291;48.924;12.204;2022-11-20T11:32:06;3.23;;;2.57;;
12451;SDS011;6291;48.924;12.204;2022-11-20T11:37:14;2.88;;;2.28;;
12451;SDS011;6291;48.924;12.204;2022-11-20T11:42:22;2.22;;;1.48;;
12451;SDS011;6291;48.924;12.204;2022-11-20T11:47:29;2.10;;;1.90;;
12451;SDS011;6291;48.924;12.204;2022-11-20T11:52:35;1.70;;;1.60;;
12451;SDS011;6291;48.924;12.204;2022-11-20T11:57:45;1.98;;;1.60;;
12451;SDS011;6291;48.924;12.204;2022-11-20T12:02:54;2.10;;;1.38;;
12451;SDS011;6291;48.924;12.204;2022-11-20T12:08:11;2.15;;;1.50;;
12451;SDS011;6291;48.924;12.204;2022-11-20T12:13:22;3.20;;;2.00;;
12451;SDS011;6291;48.924;12.204;2022-11-20T12:18:35;1.60;;;1.50;;
12451;SDS011;6291;48.924;12.204;2022-11-20T12:23:42;2.97;;;2.40;;
12451;SDS011;6291;48.924;12.204;2022-11-20T12:28:56;3.30;;;2.40;;
12451;SDS011;6291;48.924;12.204;2022-11-20T12:34:19;2.07;;;1.60;;
12451;SDS011;6291;48.924;12.204;2022-11-20T12:39:38;2.03;;;1.13;;
12451;SDS011;6291;48.924;12.204;2022-11-20T12:50:22;1.87;;;1.47;;
12451;SDS011;6291;48.924;12.204;2022-11-20T12:55:56;2.63;;;2.05;;
12451;SDS011;6291;48.924;12.204;2022-11-20T13:01:20;2.47;;;1.77;;
12451;SDS011;6291;48.924;12.204;2022-11-20T13:06:47;4.35;;;2.53;;
12451;SDS011;6291;48.924;12.204;2022-11-20T13:11:55;2.55;;;1.70;;
12451;SDS011;6291;48.924;12.204;2022-11-20T13:17:02;2.83;;;1.70;;
12451;SDS011;6291;48.924;12.204;2022-11-20T13:22:10;1.92;;;1.73;;
12451;SDS011;6291;48.924;12.204;2022-11-20T13:27:21;2.75;;;1.40;;
12451;SDS011;6291;48.924;12.204;2022-11-20T13:32:26;3.40;;;1.70;;
12451;SDS011;6291;48.924;12.204;2022-11-20T13:37:34;2.20;;;2.00;;
12451;SDS011;6291;48.924;12.204;2022-11-20T13:42:43;2.20;;;2.00;;
12451;SDS011;6291;48.924;12.204;2022-11-20T13:47:48;2.30;;;1.90;;
12451;SDS011;6291;48.924;12.204;2022-11-20T13:52:55;1.90;;;1.70;;
12451;SDS011;6291;48.924;12.204;2022-11-20T13:58:07;2.43;;;2.20;;
12451;SDS011;6291;48.924;12.204;2022-11-20T14:03:30;2.75;;;1.98;;
12451;SDS011;6291;48.924;12.204;2022-11-20T14:08:56;5.03;;;2.90;;
12451;SDS011;6291;48.924;12.204;2022-11-20T14:14:02;4.88;;;3.10;;
12451;SDS011;6291;48.924;12.204;2022-11-20T14:19:26;3.55;;;2.72;;
12451;SDS011;6291;48.924;12.204;2022-11-20T14:24:32;5.57;;;3.40;;
12451;SDS011;6291;48.924;12.204;2022-11-20T14:29:37;2.77;;;2.10;;
12451;SDS011;6291;48.924;12.204;2022-11-20T14:34:42;2.23;;;2.03;;
12451;SDS011;6291;48.924;12.204;2022-11-20T14:39:49;6.07;;;3.80;;
12451;SDS011;6291;48.924;12.204;2022-11-20T14:44:56;1.83;;;1.60;;
12451;SDS011;6291;48.924;12.204;2022-11-20T14:50:00;1.25;;;1.15;;
12451;SDS011;6291;48.924;12.204;2022-11-20T14:55:13;3.67;;;2.70;;
12451;SDS011;6291;48.924;12.204;2022-11-20T15:00:31;7.93;;;5.18;;
12451;SDS011;6291;48.924;12.204;2022-11-20T15:05:45;20.15;;;10.10;;
12451;SDS011;6291;48.924;12.204;2022-11-20T15:10:51;3.13;;;2.33;;
12451;SDS011;6291;48.924;12.204;2022-11-20T15:15:57;1.30;;;1.10;;
12451;SDS011;6291;48.924;12.204;2022-11-20T15:21:03;2.23;;;2.03;;
12451;SDS011;6291;48.924;12.204;2022-11-20T15:26:13;0.80;;;0.80;;
12451;SDS011;6291;48.924;12.204;2022-11-20T15:31:24;2.40;;;1.50;;
12451;SDS011;6291;48.924;12.204;2022-11-20T15:36:28;1.67;;;1.50;;
12451;SDS011;6291;48.924;12.204;2022-11-20T15:41:31;1.67;;;1.33;;
12451;SDS011;6291;48.924;12.204;2022-11-20T15:46:37;2.28;;;1.90;;
12451;SDS011;6291;48.924;12.204;2022-11-20T15:51:46;2.13;;;1.60;;
12451;SDS011;6291;48.924;12.204;2022-11-20T15:56:51;1.30;;;1.20;;
12451;SDS011;6291;48.924;12.204;2022-11-20T16:01:56;1.98;;;1.40;;
12451;SDS011;6291;48.924;12.204;2022-11-20T16:06:59;2.53;;;1.60;;
12451;SDS011;6291;48.924;12.204;2022-11-20T16:12:03;1.23;;;1.10;;
12451;SDS011;6291;48.924;12.204;2022-11-20T16:17:08;1.70;;;1.58;;
12451;SDS011;6291;48.924;12.204;2022-11-20T16:22:11;5.23;;;3.40;;
12451;SDS011;6291;48.924;12.204;2022-11-20T16:27:15;4.78;;;2.63;;
12451;SDS011;6291;48.924;12.204;2022-11-20T16:32:20;5.03;;;3.10;;
12451;SDS011;6291;48.924;12.204;2022-11-20T16:37:23;4.07;;;3.60;;
12451;SDS011;6291;48.924;12.204;2022-11-20T16:42:27;3.75;;;2.83;;
12451;SDS011;6291;48.924;12.204;2022-11-20T16:47:33;5.50;;;4.28;;
12451;SDS011;6291;48.924;12.204;2022-11-20T16:52:37;4.80;;;4.00;;
12451;SDS011;6291;48.924;12.204;2022-11-20T16:57:43;7.97;;;5.95;;
12451;SDS011;6291;48.924;12.204;2022-11-20T17:02:48;8.00;;;5.72;;
12451;SDS011;6291;48.924;12.204;2022-11-20T17:07:52;7.03;;;5.10;;
12451;SDS011;6291;48.924;12.204;2022-11-20T17:12:55;4.47;;;4.07;;
12451;SDS011;6291;48.924;12.204;2022-11-20T17:18:00;5.22;;;4.68;;
12451;SDS011;6291;48.924;12.204;2022-11-20T17:23:04;9.65;;;7.85;;
12451;SDS011;6291;48.924;12.204;2022-11-20T17:28:08;7.88;;;6.38;;
12451;SDS011;6291;48.924;12.204;2022-11-20T17:33:13;7.53;;;6.30;;
12451;SDS011;6291;48.924;12.204;2022-11-20T17:38:18;8.57;;;7.03;;
12451;SDS011;6291;48.924;12.204;2022-11-20T17:43:22;8.77;;;7.50;;
12451;SDS011;6291;48.924;12.204;2022-11-20T17:48:27;8.95;;;7.32;;
12451;SDS011;6291;48.924;12.204;2022-11-20T17:53:33;14.57;;;12.57;;
12451;SDS011;6291;48.924;12.204;2022-11-20T17:58:38;15.27;;;13.73;;
12451;SDS011;6291;48.924;12.204;2022-11-20T18:03:43;23.38;;;21.17;;
12451;SDS011;6291;48.924;12.204;2022-11-20T18:08:48;25.33;;;22.73;;
12451;SDS011;6291;48.924;12.204;2022-11-20T18:13:53;22.20;;;19.73;;
12451;SDS011;6291;48.924;12.204;2022-11-20T18:19:17;21.90;;;19.60;;
12451;SDS011;6291;48.924;12.204;2022-11-20T18:24:21;19.27;;;17.20;;
12451;SDS011;6291;48.924;12.204;2022-11-20T18:29:25;20.45;;;18.20;;
12451;SDS011;6291;48.924;12.204;2022-11-20T18:34:30;23.88;;;20.55;;
12451;SDS011;6291;48.924;12.204;2022-11-20T18:39:34;19.13;;;16.15;;
12451;SDS011;6291;48.924;12.204;2022-11-20T18:44:37;25.85;;;19.63;;
12451;SDS011;6291;48.924;12.204;2022-11-20T18:49:54;22.00;;;17.17;;
12451;SDS011;6291;48.924;12.204;2022-11-20T18:54:58;21.48;;;18.13;;
12451;SDS011;6291;48.924;12.204;2022-11-20T19:00:02;18.77;;;16.42;;
12451;SDS011;6291;48.924;12.204;2022-11-20T19:05:12;21.23;;;17.98;;
12451;SDS011;6291;48.924;12.204;2022-11-20T19:10:17;39.53;;;31.40;;
12451;SDS011;6291;48.924;12.204;2022-11-20T19:15:21;24.50;;;18.33;;
12451;SDS011;6291;48.924;12.204;2022-11-20T19:20:26;13.68;;;11.32;;
12451;SDS011;6291;48.924;12.204;2022-11-20T19:25:29;12.75;;;11.10;;
12451;SDS011;6291;48.924;12.204;2022-11-20T19:30:38;29.33;;;23.33;;
12451;SDS011;6291;48.924;12.204;2022-11-20T19:35:43;26.40;;;19.20;;
12451;SDS011;6291;48.924;12.204;2022-11-20T19:40:46;37.93;;;28.87;;
12451;SDS011;6291;48.924;12.204;2022-11-20T19:45:50;29.35;;;22.40;;
12451;SDS011;6291;48.924;12.204;2022-11-20T19:50:55;24.03;;;15.53;;
12451;SDS011;6291;48.924;12.204;2022-11-20T19:55:58;10.90;;;7.85;;
12451;SDS011;6291;48.924;12.204;2022-11-20T20:01:05;8.30;;;7.22;;
12451;SDS011;6291;48.924;12.204;2022-11-20T20:06:12;5.68;;;4.90;;
12451;SDS011;6291;48.924;12.204;2022-11-20T20:11:18;4.55;;;4.15;;
12451;SDS011;6291;48.924;12.204;2022-11-20T20:16:23;4.72;;;4.22;;
12451;SDS011;6291;48.924;12.204;2022-11-20T20:21:30;5.43;;;4.70;;
12451;SDS011;6291;48.924;12.204;2022-11-20T20:26:34;7.93;;;5.90;;
12451;SDS011;6291;48.924;12.204;2022-11-20T20:31:38;7.68;;;5.82;;
12451;SDS011;6291;48.924;12.204;2022-11-20T20:36:43;5.80;;;5.20;;
12451;SDS011;6291;48.924;12.204;2022-11-20T20:41:46;7.95;;;6.90;;
12451;SDS011;6291;48.924;12.204;2022-11-20T20:46:50;12.27;;;9.80;;
12451;SDS011;6291;48.924;12.204;2022-11-20T20:51:55;16.25;;;14.20;;
12451;SDS011;6291;48.924;12.204;2022-11-20T20:56:58;11.83;;;9.90;;
12451;SDS011;6291;48.924;12.204;2022-11-20T21:02:01;10.63;;;9.23;;
12451;SDS011;6291;48.924;12.204;2022-11-20T21:07:06;11.30;;;7.60;;
12451;SDS011;6291;48.924;12.204;2022-11-20T21:12:11;11.68;;;9.02;;
12451;SDS011;6291;48.924;12.204;2022-11-20T21:17:15;29.92;;;19.00;;
12451;SDS011;6291;48.924;12.204;2022-11-20T21:22:20;18.52;;;13.05;;
12451;SDS011;6291;48.924;12.204;2022-11-20T21:27:24;16.30;;;12.75;;
12451;SDS011;6291;48.924;12.204;2022-11-20T21:32:28;15.88;;;11.60;;
12451;SDS011;6291;48.924;12.204;2022-11-20T21:37:33;8.70;;;7.40;;
12451;SDS011;6291;48.924;12.204;2022-11-20T21:42:41;5.60;;;4.53;;
12451;SDS011;6291;48.924;12.204;2022-11-20T21:47:47;5.93;;;4.27;;
12451;SDS011;6291;48.924;12.204;2022-11-20T21:52:52;3.60;;;3.30;;
12451;SDS011;6291;48.924;12.204;2022-11-20T21:57:55;4.78;;;3.15;;
12451;SDS011;6291;48.924;12.204;2022-11-20T22:02:58;3.25;;;2.90;;
12451;SDS011;6291;48.924;12.204;2022-11-20T22:08:03;6.00;;;4.60;;
12451;SDS011;6291;48.924;12.204;2022-11-20T22:13:07;5.50;;;4.45;;
12451;SDS011;6291;48.924;12.204;2022-11-20T22:18:28;4.03;;;2.50;;
12451;SDS011;6291;48.924;12.204;2022-11-20T22:23:33;2.80;;;1.97;;
12451;SDS011;6291;48.924;12.204;2022-11-20T22:28:37;3.50;;;2.25;;
12451;SDS011;6291;48.924;12.204;2022-11-20T22:33:41;1.35;;;1.25;;
12451;SDS011;6291;48.924;12.204;2022-11-20T22:38:46;2.38;;;1.20;;
12451;SDS011;6291;48.924;12.204;2022-11-20T22:43:52;2.03;;;1.00;;
12451;SDS011;6291;48.924;12.204;2022-11-20T22:48:57;1.42;;;1.33;;
12451;SDS011;6291;48.924;12.204;2022-11-20T22:54:03;1.70;;;1.48;;
12451;SDS011;6291;48.924;12.204;2022-11-20T22:59:07;2.20;;;1.52;;
12451;SDS011;6291;48.924;12.204;2022-11-20T23:04:10;1.80;;;1.63;;
12451;SDS011;6291;48.924;12.204;2022-11-20T23:09:15;3.30;;;2.50;;
12451;SDS011;6291;48.924;12.204;2022-11-20T23:14:18;2.63;;;1.70;;
12451;SDS011;6291;48.924;12.204;2022-11-20T23:19:28;1.17;;;1.07;;
12451;SDS011;6291;48.924;12.204;2022-11-20T23:24:32;1.50;;;1.40;;
12451;SDS011;6291;48.924;12.204;2022-11-20T23:29:36;1.85;;;1.70;;
12451;SDS011;6291;48.924;12.204;2022-11-20T23:34:39;2.30;;;1.77;;
12451;SDS011;6291;48.924;12.204;2022-11-20T23:39:44;1.50;;;1.38;;
12451;SDS011;6291;48.924;12.204;2022-11-20T23:44:47;2.30;;;1.88;;
12451;SDS011;6291;48.924;12.204;2022-11-20T23:49:50;0.87;;;0.87;;
12451;SDS011;6291;48.924;12.204;2022-11-20T23:54:55;2.13;;;1.40;;
12451;SDS011;6291;48.924;12.204;2022-11-20T23:59:59;0.97;;;0.90;;
